sensor_id;sensor_type;location;lat;lon;timestamp;temperature;humidity
9913;DHT22;41380;52.548;13.344;2022-07-01T00:00:12;21.90;99.90
9913;DHT22;41380;52.548;13.344;2022-07-01T00:02:39;22.00;99.90
9913;DHT22;41380;52.548;13.344;2022-07-01T00:05:06;22.00;99.90
9913;DHT22;41380;52.548;13.344;2022-07-01T00:07:33;22.00;99.90
9913;DHT22;41380;52.548;13.344;2022-07-01T00:10:00;22.00;99.90
9913;DHT22;41380;52.548;13.344;2022-07-01T00:12:27;22.10;99.90
9913;DHT22;41380;52.548;13.344;2022-07-01T00:14:54;22.10;99.90
9913;DHT22;41380;52.548;13.344;2022-07-01T00:17:22;22.10;99.90
9913;DHT22;41380;52.548;13.344;2022-07-01T00:19:49;22.10;99.90
9913;DHT22;41380;52.548;13.344;2022-07-01T00:22:16;22.10;99.90
9913;DHT22;41380;52.548;13.344;2022-07-01T00:24:43;22.10;99.90
9913;DHT22;41380;52.548;13.344;2022-07-01T00:27:14;22.10;99.90
9913;DHT22;41380;52.548;13.344;2022-07-01T00:29:41;22.10;99.90
9913;DHT22;41380;52.548;13.344;2022-07-01T00:32:07;22.10;99.90
9913;DHT22;41380;52.548;13.344;2022-07-01T00:34:36;22.10;99.90
9913;DHT22;41380;52.548;13.344;2022-07-01T00:37:03;22.10;99.90
9913;DHT22;41380;52.548;13.344;2022-07-01T00:39:30;22.00;99.90
9913;DHT22;41380;52.548;13.344;2022-07-01T00:41:59;22.00;99.90
9913;DHT22;41380;52.548;13.344;2022-07-01T00:44:27;22.00;99.90
9913;DHT22;41380;52.548;13.344;2022-07-01T00:46:54;22.00;99.90
9913;DHT22;41380;52.548;13.344;2022-07-01T00:49:22;21.90;99.90
9913;DHT22;41380;52.548;13.344;2022-07-01T00:51:51;21.90;99.90
9913;DHT22;41380;52.548;13.344;2022-07-01T00:54:19;21.90;99.90
9913;DHT22;41380;52.548;13.344;2022-07-01T00:56:46;21.90;99.90
9913;DHT22;41380;52.548;13.344;2022-07-01T00:59:14;21.90;99.90
9913;DHT22;41380;52.548;13.344;2022-07-01T01:01:41;21.80;99.90
9913;DHT22;41380;52.548;13.344;2022-07-01T01:04:08;21.70;99.90
9913;DHT22;41380;52.548;13.344;2022-07-01T01:06:35;21.70;99.90
9913;DHT22;41380;52.548;13.344;2022-07-01T01:09:03;21.70;99.90
9913;DHT22;41380;52.548;13.344;2022-07-01T01:11:30;21.70;99.90
9913;DHT22;41380;52.548;13.344;2022-07-01T01:13:58;21.70;99.90
9913;DHT22;41380;52.548;13.344;2022-07-01T01:16:25;21.70;99.90
9913;DHT22;41380;52.548;13.344;2022-07-01T01:18:52;21.70;99.90
9913;DHT22;41380;52.548;13.344;2022-07-01T01:21:20;21.60;99.90
9913;DHT22;41380;52.548;13.344;2022-07-01T01:23:47;21.60;99.90
9913;DHT22;41380;52.548;13.344;2022-07-01T01:26:19;21.60;99.90
9913;DHT22;41380;52.548;13.344;2022-07-01T01:28:46;21.60;99.90
9913;DHT22;41380;52.548;13.344;2022-07-01T01:31:13;21.50;99.90
9913;DHT22;41380;52.548;13.344;2022-07-01T01:33:40;21.50;99.90
9913;DHT22;41380;52.548;13.344;2022-07-01T01:36:07;21.40;99.90
9913;DHT22;41380;52.548;13.344;2022-07-01T01:38:36;21.40;99.90
9913;DHT22;41380;52.548;13.344;2022-07-01T01:41:04;21.40;99.90
9913;DHT22;41380;52.548;13.344;2022-07-01T01:43:31;21.40;99.90
9913;DHT22;41380;52.548;13.344;2022-07-01T01:46:01;21.40;99.90
9913;DHT22;41380;52.548;13.344;2022-07-01T01:48:28;21.40;99.90
9913;DHT22;41380;52.548;13.344;2022-07-01T01:50:55;21.40;99.90
9913;DHT22;41380;52.548;13.344;2022-07-01T01:53:24;21.40;99.90
9913;DHT22;41380;52.548;13.344;2022-07-01T01:55:52;21.40;99.90
9913;DHT22;41380;52.548;13.344;2022-07-01T01:58:19;21.50;99.90
9913;DHT22;41380;52.548;13.344;2022-07-01T02:00:46;21.50;99.90
9913;DHT22;41380;52.548;13.344;2022-07-01T02:03:13;21.70;99.90
9913;DHT22;41380;52.548;13.344;2022-07-01T02:05:40;21.60;99.90
9913;DHT22;41380;52.548;13.344;2022-07-01T02:08:07;21.60;99.90
9913;DHT22;41380;52.548;13.344;2022-07-01T02:10:34;21.50;99.90
9913;DHT22;41380;52.548;13.344;2022-07-01T02:13:02;21.40;99.90
9913;DHT22;41380;52.548;13.344;2022-07-01T02:15:29;21.40;99.90
9913;DHT22;41380;52.548;13.344;2022-07-01T02:17:56;21.30;99.90
9913;DHT22;41380;52.548;13.344;2022-07-01T02:20:23;21.30;99.90
9913;DHT22;41380;52.548;13.344;2022-07-01T02:22:50;21.30;99.90
9913;DHT22;41380;52.548;13.344;2022-07-01T02:25:18;21.30;99.90
9913;DHT22;41380;52.548;13.344;2022-07-01T02:27:46;21.20;99.90
9913;DHT22;41380;52.548;13.344;2022-07-01T02:30:15;21.20;99.90
9913;DHT22;41380;52.548;13.344;2022-07-01T02:32:42;21.30;99.90
9913;DHT22;41380;52.548;13.344;2022-07-01T02:35:09;21.30;99.90
9913;DHT22;41380;52.548;13.344;2022-07-01T02:37:36;21.20;99.90
9913;DHT22;41380;52.548;13.344;2022-07-01T02:40:04;21.20;99.90
9913;DHT22;41380;52.548;13.344;2022-07-01T02:42:31;21.20;99.90
9913;DHT22;41380;52.548;13.344;2022-07-01T02:45:01;21.20;99.90
9913;DHT22;41380;52.548;13.344;2022-07-01T02:47:35;21.10;99.90
9913;DHT22;41380;52.548;13.344;2022-07-01T02:50:03;21.10;99.90
9913;DHT22;41380;52.548;13.344;2022-07-01T02:52:30;21.10;99.90
9913;DHT22;41380;52.548;13.344;2022-07-01T02:54:57;21.10;99.90
9913;DHT22;41380;52.548;13.344;2022-07-01T02:57:24;21.20;99.90
9913;DHT22;41380;52.548;13.344;2022-07-01T02:59:52;21.20;99.90
9913;DHT22;41380;52.548;13.344;2022-07-01T03:02:19;21.20;99.90
9913;DHT22;41380;52.548;13.344;2022-07-01T03:04:48;21.20;99.90
9913;DHT22;41380;52.548;13.344;2022-07-01T03:07:17;21.10;99.90
9913;DHT22;41380;52.548;13.344;2022-07-01T03:09:45;21.20;99.90
9913;DHT22;41380;52.548;13.344;2022-07-01T03:12:13;21.20;99.90
9913;DHT22;41380;52.548;13.344;2022-07-01T03:14:53;21.30;99.90
9913;DHT22;41380;52.548;13.344;2022-07-01T03:17:21;21.40;99.90
9913;DHT22;41380;52.548;13.344;2022-07-01T03:19:50;21.50;99.90
9913;DHT22;41380;52.548;13.344;2022-07-01T03:22:18;21.60;99.90
9913;DHT22;41380;52.548;13.344;2022-07-01T03:24:46;21.60;99.90
9913;DHT22;41380;52.548;13.344;2022-07-01T03:27:13;21.60;99.90
9913;DHT22;41380;52.548;13.344;2022-07-01T03:29:40;21.70;99.90
9913;DHT22;41380;52.548;13.344;2022-07-01T03:32:08;21.70;99.90
9913;DHT22;41380;52.548;13.344;2022-07-01T03:34:36;21.90;99.90
9913;DHT22;41380;52.548;13.344;2022-07-01T03:37:05;21.90;99.90
9913;DHT22;41380;52.548;13.344;2022-07-01T03:39:32;22.00;99.90
9913;DHT22;41380;52.548;13.344;2022-07-01T03:41:59;22.00;99.90
9913;DHT22;41380;52.548;13.344;2022-07-01T03:44:26;22.10;99.90
9913;DHT22;41380;52.548;13.344;2022-07-01T03:46:53;22.10;99.90
9913;DHT22;41380;52.548;13.344;2022-07-01T03:49:20;22.10;99.90
9913;DHT22;41380;52.548;13.344;2022-07-01T03:51:48;22.20;99.90
9913;DHT22;41380;52.548;13.344;2022-07-01T03:54:17;22.30;99.90
9913;DHT22;41380;52.548;13.344;2022-07-01T03:56:55;22.30;99.90
9913;DHT22;41380;52.548;13.344;2022-07-01T03:59:21;22.40;99.90
9913;DHT22;41380;52.548;13.344;2022-07-01T04:01:48;22.40;99.90
9913;DHT22;41380;52.548;13.344;2022-07-01T04:04:15;22.40;99.90
9913;DHT22;41380;52.548;13.344;2022-07-01T04:06:42;22.50;99.90
9913;DHT22;41380;52.548;13.344;2022-07-01T04:09:10;22.50;99.90
9913;DHT22;41380;52.548;13.344;2022-07-01T04:11:40;22.60;99.90
9913;DHT22;41380;52.548;13.344;2022-07-01T04:14:07;22.60;99.90
9913;DHT22;41380;52.548;13.344;2022-07-01T04:16:34;22.80;99.90
9913;DHT22;41380;52.548;13.344;2022-07-01T04:19:02;22.80;99.90
9913;DHT22;41380;52.548;13.344;2022-07-01T04:21:29;22.90;99.90
9913;DHT22;41380;52.548;13.344;2022-07-01T04:24:13;22.90;99.90
9913;DHT22;41380;52.548;13.344;2022-07-01T04:26:43;23.00;99.90
9913;DHT22;41380;52.548;13.344;2022-07-01T04:29:10;23.10;99.90
9913;DHT22;41380;52.548;13.344;2022-07-01T04:31:38;23.20;99.90
9913;DHT22;41380;52.548;13.344;2022-07-01T04:34:06;23.30;99.90
9913;DHT22;41380;52.548;13.344;2022-07-01T04:36:33;23.40;99.90
9913;DHT22;41380;52.548;13.344;2022-07-01T04:39:00;23.50;99.90
9913;DHT22;41380;52.548;13.344;2022-07-01T04:41:29;23.60;99.90
9913;DHT22;41380;52.548;13.344;2022-07-01T04:44:15;23.50;99.90
9913;DHT22;41380;52.548;13.344;2022-07-01T04:46:42;23.60;99.90
9913;DHT22;41380;52.548;13.344;2022-07-01T04:49:09;23.60;99.90
9913;DHT22;41380;52.548;13.344;2022-07-01T04:51:36;23.70;99.90
9913;DHT22;41380;52.548;13.344;2022-07-01T04:54:04;23.70;99.90
9913;DHT22;41380;52.548;13.344;2022-07-01T04:56:32;23.80;99.90
9913;DHT22;41380;52.548;13.344;2022-07-01T04:58:59;24.00;99.90
9913;DHT22;41380;52.548;13.344;2022-07-01T05:01:28;24.10;99.90
9913;DHT22;41380;52.548;13.344;2022-07-01T05:03:56;24.20;99.90
9913;DHT22;41380;52.548;13.344;2022-07-01T05:06:24;24.30;99.90
9913;DHT22;41380;52.548;13.344;2022-07-01T05:08:52;24.40;99.90
9913;DHT22;41380;52.548;13.344;2022-07-01T05:11:21;24.50;99.90
9913;DHT22;41380;52.548;13.344;2022-07-01T05:13:49;24.60;99.90
9913;DHT22;41380;52.548;13.344;2022-07-01T05:16:16;24.70;99.90
9913;DHT22;41380;52.548;13.344;2022-07-01T05:18:44;24.70;99.90
9913;DHT22;41380;52.548;13.344;2022-07-01T05:21:29;24.80;99.90
9913;DHT22;41380;52.548;13.344;2022-07-01T05:24:13;25.00;99.90
9913;DHT22;41380;52.548;13.344;2022-07-01T05:26:40;25.30;99.90
9913;DHT22;41380;52.548;13.344;2022-07-01T05:29:08;25.80;98.50
9913;DHT22;41380;52.548;13.344;2022-07-01T05:31:35;26.30;97.40
9913;DHT22;41380;52.548;13.344;2022-07-01T05:34:03;26.80;95.90
9913;DHT22;41380;52.548;13.344;2022-07-01T05:36:30;27.00;94.60
9913;DHT22;41380;52.548;13.344;2022-07-01T05:38:57;26.80;94.00
9913;DHT22;41380;52.548;13.344;2022-07-01T05:41:24;26.90;94.30
9913;DHT22;41380;52.548;13.344;2022-07-01T05:43:51;27.00;94.30
9913;DHT22;41380;52.548;13.344;2022-07-01T05:46:19;27.10;93.70
9913;DHT22;41380;52.548;13.344;2022-07-01T05:48:46;27.30;93.40
9913;DHT22;41380;52.548;13.344;2022-07-01T05:51:14;27.50;93.10
9913;DHT22;41380;52.548;13.344;2022-07-01T05:53:41;27.50;92.80
9913;DHT22;41380;52.548;13.344;2022-07-01T05:56:09;27.70;92.60
9913;DHT22;41380;52.548;13.344;2022-07-01T05:58:36;27.80;92.20
9913;DHT22;41380;52.548;13.344;2022-07-01T06:01:03;27.90;92.00
9913;DHT22;41380;52.548;13.344;2022-07-01T06:03:30;27.80;91.80
9913;DHT22;41380;52.548;13.344;2022-07-01T06:05:59;27.90;91.70
9913;DHT22;41380;52.548;13.344;2022-07-01T06:08:27;27.90;91.60
9913;DHT22;41380;52.548;13.344;2022-07-01T06:10:55;27.90;91.70
9913;DHT22;41380;52.548;13.344;2022-07-01T06:13:22;27.70;91.70
9913;DHT22;41380;52.548;13.344;2022-07-01T06:15:48;27.70;91.80
9913;DHT22;41380;52.548;13.344;2022-07-01T06:18:16;27.70;91.80
9913;DHT22;41380;52.548;13.344;2022-07-01T06:20:42;27.70;91.70
9913;DHT22;41380;52.548;13.344;2022-07-01T06:23:09;27.70;91.50
9913;DHT22;41380;52.548;13.344;2022-07-01T06:25:38;27.70;91.70
9913;DHT22;41380;52.548;13.344;2022-07-01T06:28:14;27.90;91.60
9913;DHT22;41380;52.548;13.344;2022-07-01T06:30:41;28.20;91.00
9913;DHT22;41380;52.548;13.344;2022-07-01T06:33:10;28.40;90.60
9913;DHT22;41380;52.548;13.344;2022-07-01T06:35:38;28.80;90.30
9913;DHT22;41380;52.548;13.344;2022-07-01T06:38:05;28.80;90.10
9913;DHT22;41380;52.548;13.344;2022-07-01T06:40:32;28.80;89.90
9913;DHT22;41380;52.548;13.344;2022-07-01T06:43:01;28.80;90.00
9913;DHT22;41380;52.548;13.344;2022-07-01T06:45:28;28.80;90.00
9913;DHT22;41380;52.548;13.344;2022-07-01T06:47:55;28.80;89.80
9913;DHT22;41380;52.548;13.344;2022-07-01T06:50:22;28.60;89.80
9913;DHT22;41380;52.548;13.344;2022-07-01T06:52:49;28.60;90.00
9913;DHT22;41380;52.548;13.344;2022-07-01T06:55:16;28.60;90.00
9913;DHT22;41380;52.548;13.344;2022-07-01T06:57:43;28.60;89.60
9913;DHT22;41380;52.548;13.344;2022-07-01T07:00:12;28.50;89.70
9913;DHT22;41380;52.548;13.344;2022-07-01T07:02:40;28.40;89.10
9913;DHT22;41380;52.548;13.344;2022-07-01T07:05:08;28.40;89.00
9913;DHT22;41380;52.548;13.344;2022-07-01T07:07:35;28.40;88.80
9913;DHT22;41380;52.548;13.344;2022-07-01T07:10:09;28.30;89.00
9913;DHT22;41380;52.548;13.344;2022-07-01T07:12:36;28.60;88.60
9913;DHT22;41380;52.548;13.344;2022-07-01T07:15:03;29.20;87.60
9913;DHT22;41380;52.548;13.344;2022-07-01T07:17:32;30.30;99.10
9913;DHT22;41380;52.548;13.344;2022-07-01T07:19:59;30.20;86.40
9913;DHT22;41380;52.548;13.344;2022-07-01T07:22:26;30.60;81.00
9913;DHT22;41380;52.548;13.344;2022-07-01T07:24:53;31.30;80.30
9913;DHT22;41380;52.548;13.344;2022-07-01T07:27:21;31.80;76.20
9913;DHT22;41380;52.548;13.344;2022-07-01T07:29:54;31.30;76.60
9913;DHT22;41380;52.548;13.344;2022-07-01T07:32:21;31.50;76.40
9913;DHT22;41380;52.548;13.344;2022-07-01T07:34:49;31.80;75.50
9913;DHT22;41380;52.548;13.344;2022-07-01T07:37:16;32.50;75.00
9913;DHT22;41380;52.548;13.344;2022-07-01T07:39:44;32.90;73.60
9913;DHT22;41380;52.548;13.344;2022-07-01T07:42:11;32.40;73.30
9913;DHT22;41380;52.548;13.344;2022-07-01T07:44:38;31.80;74.20
9913;DHT22;41380;52.548;13.344;2022-07-01T07:47:05;31.30;74.70
9913;DHT22;41380;52.548;13.344;2022-07-01T07:49:32;30.90;76.00
9913;DHT22;41380;52.548;13.344;2022-07-01T07:52:00;30.30;77.80
9913;DHT22;41380;52.548;13.344;2022-07-01T07:54:27;30.00;77.80
9913;DHT22;41380;52.548;13.344;2022-07-01T07:56:55;29.60;79.10
9913;DHT22;41380;52.548;13.344;2022-07-01T07:59:21;29.60;79.10
9913;DHT22;41380;52.548;13.344;2022-07-01T08:01:48;29.90;79.00
9913;DHT22;41380;52.548;13.344;2022-07-01T08:04:16;29.70;79.00
9913;DHT22;41380;52.548;13.344;2022-07-01T08:06:43;29.50;79.50
9913;DHT22;41380;52.548;13.344;2022-07-01T08:09:11;29.40;79.50
9913;DHT22;41380;52.548;13.344;2022-07-01T08:11:38;29.40;79.70
9913;DHT22;41380;52.548;13.344;2022-07-01T08:14:05;29.50;79.40
9913;DHT22;41380;52.548;13.344;2022-07-01T08:16:32;29.60;79.40
9913;DHT22;41380;52.548;13.344;2022-07-01T08:18:59;29.80;79.30
9913;DHT22;41380;52.548;13.344;2022-07-01T08:21:26;29.90;78.70
9913;DHT22;41380;52.548;13.344;2022-07-01T08:23:52;30.00;78.40
9913;DHT22;41380;52.548;13.344;2022-07-01T08:26:21;30.20;78.10
9913;DHT22;41380;52.548;13.344;2022-07-01T08:28:48;30.40;77.60
9913;DHT22;41380;52.548;13.344;2022-07-01T08:31:15;30.60;77.10
9913;DHT22;41380;52.548;13.344;2022-07-01T08:33:42;30.60;77.20
9913;DHT22;41380;52.548;13.344;2022-07-01T08:36:11;30.70;76.70
9913;DHT22;41380;52.548;13.344;2022-07-01T08:38:40;30.60;76.80
9913;DHT22;41380;52.548;13.344;2022-07-01T08:41:07;30.50;77.10
9913;DHT22;41380;52.548;13.344;2022-07-01T08:43:35;30.70;76.60
9913;DHT22;41380;52.548;13.344;2022-07-01T08:46:03;30.70;76.90
9913;DHT22;41380;52.548;13.344;2022-07-01T08:48:30;30.80;76.50
9913;DHT22;41380;52.548;13.344;2022-07-01T08:50:57;31.10;75.70
9913;DHT22;41380;52.548;13.344;2022-07-01T08:53:29;31.20;75.70
9913;DHT22;41380;52.548;13.344;2022-07-01T08:55:56;31.30;75.40
9913;DHT22;41380;52.548;13.344;2022-07-01T08:58:42;31.30;75.20
9913;DHT22;41380;52.548;13.344;2022-07-01T09:01:15;31.30;74.80
9913;DHT22;41380;52.548;13.344;2022-07-01T09:03:43;31.30;75.30
9913;DHT22;41380;52.548;13.344;2022-07-01T09:06:12;31.10;74.70
9913;DHT22;41380;52.548;13.344;2022-07-01T09:08:40;31.00;75.40
9913;DHT22;41380;52.548;13.344;2022-07-01T09:11:14;30.90;75.30
9913;DHT22;41380;52.548;13.344;2022-07-01T09:13:45;30.50;75.10
9913;DHT22;41380;52.548;13.344;2022-07-01T09:16:53;30.60;75.50
9913;DHT22;41380;52.548;13.344;2022-07-01T09:19:31;30.70;76.00
9913;DHT22;41380;52.548;13.344;2022-07-01T09:22:10;30.60;75.10
9913;DHT22;41380;52.548;13.344;2022-07-01T09:24:43;30.50;75.90
9913;DHT22;41380;52.548;13.344;2022-07-01T09:27:12;29.90;77.10
9913;DHT22;41380;52.548;13.344;2022-07-01T09:29:42;28.90;79.20
9913;DHT22;41380;52.548;13.344;2022-07-01T09:32:11;28.30;81.20
9913;DHT22;41380;52.548;13.344;2022-07-01T09:34:41;27.50;82.60
9913;DHT22;41380;52.548;13.344;2022-07-01T09:37:12;27.00;84.10
9913;DHT22;41380;52.548;13.344;2022-07-01T09:39:43;26.40;86.00
9913;DHT22;41380;52.548;13.344;2022-07-01T09:42:11;26.00;86.20
9913;DHT22;41380;52.548;13.344;2022-07-01T09:44:51;25.60;87.00
9913;DHT22;41380;52.548;13.344;2022-07-01T09:47:22;25.10;88.00
9913;DHT22;41380;52.548;13.344;2022-07-01T09:49:50;24.90;88.80
9913;DHT22;41380;52.548;13.344;2022-07-01T09:52:55;24.80;89.00
9913;DHT22;41380;52.548;13.344;2022-07-01T09:55:10;24.40;89.60
9913;DHT22;41380;52.548;13.344;2022-07-01T09:57:40;24.10;90.10
9913;DHT22;41380;52.548;13.344;2022-07-01T10:00:10;23.80;90.40
9913;DHT22;41380;52.548;13.344;2022-07-01T10:02:38;23.60;90.60
9913;DHT22;41380;52.548;13.344;2022-07-01T10:05:08;23.30;91.20
9913;DHT22;41380;52.548;13.344;2022-07-01T10:07:43;23.00;91.50
9913;DHT22;41380;52.548;13.344;2022-07-01T10:10:28;22.90;91.50
9913;DHT22;41380;52.548;13.344;2022-07-01T10:13:06;22.80;91.80
9913;DHT22;41380;52.548;13.344;2022-07-01T10:15:36;22.90;91.70
9913;DHT22;41380;52.548;13.344;2022-07-01T10:18:03;22.90;91.70
9913;DHT22;41380;52.548;13.344;2022-07-01T10:20:33;23.00;91.70
9913;DHT22;41380;52.548;13.344;2022-07-01T10:23:04;23.20;91.50
9913;DHT22;41380;52.548;13.344;2022-07-01T10:25:44;23.40;91.10
9913;DHT22;41380;52.548;13.344;2022-07-01T10:28:17;23.20;91.10
9913;DHT22;41380;52.548;13.344;2022-07-01T10:30:54;23.20;91.30
9913;DHT22;41380;52.548;13.344;2022-07-01T10:33:48;23.30;91.30
9913;DHT22;41380;52.548;13.344;2022-07-01T10:36:19;23.30;91.10
9913;DHT22;41380;52.548;13.344;2022-07-01T10:39:15;23.00;91.30
9913;DHT22;41380;52.548;13.344;2022-07-01T10:42:00;22.70;91.80
9913;DHT22;41380;52.548;13.344;2022-07-01T10:44:28;22.50;92.30
9913;DHT22;41380;52.548;13.344;2022-07-01T10:47:02;22.30;92.60
9913;DHT22;41380;52.548;13.344;2022-07-01T10:49:53;22.10;93.10
9913;DHT22;41380;52.548;13.344;2022-07-01T10:52:21;21.90;93.40
9913;DHT22;41380;52.548;13.344;2022-07-01T10:54:51;21.70;94.00
9913;DHT22;41380;52.548;13.344;2022-07-01T10:57:27;21.50;94.50
9913;DHT22;41380;52.548;13.344;2022-07-01T10:59:55;21.40;95.10
9913;DHT22;41380;52.548;13.344;2022-07-01T11:02:26;21.20;95.60
9913;DHT22;41380;52.548;13.344;2022-07-01T11:04:56;21.10;96.00
9913;DHT22;41380;52.548;13.344;2022-07-01T11:07:24;21.00;96.70
9913;DHT22;41380;52.548;13.344;2022-07-01T11:09:52;20.90;97.80
9913;DHT22;41380;52.548;13.344;2022-07-01T11:12:21;20.80;98.10
9913;DHT22;41380;52.548;13.344;2022-07-01T11:14:49;20.70;98.30
9913;DHT22;41380;52.548;13.344;2022-07-01T11:17:16;20.60;99.50
9913;DHT22;41380;52.548;13.344;2022-07-01T11:19:50;20.60;99.90
9913;DHT22;41380;52.548;13.344;2022-07-01T11:22:18;20.50;99.90
9913;DHT22;41380;52.548;13.344;2022-07-01T11:24:46;20.40;99.90
9913;DHT22;41380;52.548;13.344;2022-07-01T11:27:18;20.40;99.90
9913;DHT22;41380;52.548;13.344;2022-07-01T11:29:45;20.40;99.90
9913;DHT22;41380;52.548;13.344;2022-07-01T11:32:12;20.50;99.90
9913;DHT22;41380;52.548;13.344;2022-07-01T11:34:38;20.70;99.90
9913;DHT22;41380;52.548;13.344;2022-07-01T11:37:10;20.70;99.90
9913;DHT22;41380;52.548;13.344;2022-07-01T11:40:04;20.50;99.90
9913;DHT22;41380;52.548;13.344;2022-07-01T11:42:32;20.30;99.90
9913;DHT22;41380;52.548;13.344;2022-07-01T11:44:58;20.10;99.90
9913;DHT22;41380;52.548;13.344;2022-07-01T11:47:27;20.00;99.90
9913;DHT22;41380;52.548;13.344;2022-07-01T11:49:55;20.00;99.90
9913;DHT22;41380;52.548;13.344;2022-07-01T11:52:24;20.10;99.90
9913;DHT22;41380;52.548;13.344;2022-07-01T11:54:52;20.10;99.90
9913;DHT22;41380;52.548;13.344;2022-07-01T11:57:21;20.20;99.90
9913;DHT22;41380;52.548;13.344;2022-07-01T11:59:51;20.20;99.90
9913;DHT22;41380;52.548;13.344;2022-07-01T12:02:21;20.40;99.90
9913;DHT22;41380;52.548;13.344;2022-07-01T12:04:48;20.70;99.90
9913;DHT22;41380;52.548;13.344;2022-07-01T12:07:18;20.80;99.90
9913;DHT22;41380;52.548;13.344;2022-07-01T12:09:48;20.90;99.90
9913;DHT22;41380;52.548;13.344;2022-07-01T12:12:16;20.80;99.90
9913;DHT22;41380;52.548;13.344;2022-07-01T12:14:50;20.90;99.90
9913;DHT22;41380;52.548;13.344;2022-07-01T12:17:19;20.80;99.90
9913;DHT22;41380;52.548;13.344;2022-07-01T12:19:48;21.00;99.90
9913;DHT22;41380;52.548;13.344;2022-07-01T12:22:16;21.80;99.90
9913;DHT22;41380;52.548;13.344;2022-07-01T12:24:45;22.60;99.90
9913;DHT22;41380;52.548;13.344;2022-07-01T12:27:14;22.90;98.50
9913;DHT22;41380;52.548;13.344;2022-07-01T12:29:52;23.10;97.50
9913;DHT22;41380;52.548;13.344;2022-07-01T12:32:21;23.60;96.00
9913;DHT22;41380;52.548;13.344;2022-07-01T12:34:51;23.80;94.10
9913;DHT22;41380;52.548;13.344;2022-07-01T12:37:19;24.00;93.70
9913;DHT22;41380;52.548;13.344;2022-07-01T12:39:48;23.90;93.30
9913;DHT22;41380;52.548;13.344;2022-07-01T12:42:25;23.60;93.80
9913;DHT22;41380;52.548;13.344;2022-07-01T12:44:55;23.30;93.60
9913;DHT22;41380;52.548;13.344;2022-07-01T12:47:25;23.20;94.20
9913;DHT22;41380;52.548;13.344;2022-07-01T12:50:13;23.00;94.30
9913;DHT22;41380;52.548;13.344;2022-07-01T12:52:42;22.90;94.40
9913;DHT22;41380;52.548;13.344;2022-07-01T12:55:15;23.20;94.50
9913;DHT22;41380;52.548;13.344;2022-07-01T12:57:46;23.20;94.00
9913;DHT22;41380;52.548;13.344;2022-07-01T13:00:15;23.00;93.50
9913;DHT22;41380;52.548;13.344;2022-07-01T13:02:41;22.70;93.80
9913;DHT22;41380;52.548;13.344;2022-07-01T13:05:09;22.70;94.30
9913;DHT22;41380;52.548;13.344;2022-07-01T13:07:36;22.70;94.90
9913;DHT22;41380;52.548;13.344;2022-07-01T13:10:04;22.60;94.30
9913;DHT22;41380;52.548;13.344;2022-07-01T13:12:31;22.30;94.60
9913;DHT22;41380;52.548;13.344;2022-07-01T13:15:00;22.00;95.50
9913;DHT22;41380;52.548;13.344;2022-07-01T13:17:27;21.90;95.60
9913;DHT22;41380;52.548;13.344;2022-07-01T13:19:54;21.60;96.30
9913;DHT22;41380;52.548;13.344;2022-07-01T13:22:21;21.50;97.10
9913;DHT22;41380;52.548;13.344;2022-07-01T13:24:49;21.40;96.60
9913;DHT22;41380;52.548;13.344;2022-07-01T13:27:17;21.20;96.90
9913;DHT22;41380;52.548;13.344;2022-07-01T13:29:44;21.10;97.90
9913;DHT22;41380;52.548;13.344;2022-07-01T13:32:13;21.10;98.10
9913;DHT22;41380;52.548;13.344;2022-07-01T13:34:40;21.00;98.40
9913;DHT22;41380;52.548;13.344;2022-07-01T13:37:07;20.90;98.80
9913;DHT22;41380;52.548;13.344;2022-07-01T13:39:34;20.80;98.80
9913;DHT22;41380;52.548;13.344;2022-07-01T13:42:01;20.60;99.00
9913;DHT22;41380;52.548;13.344;2022-07-01T13:44:28;20.60;99.90
9913;DHT22;41380;52.548;13.344;2022-07-01T13:46:55;20.50;99.60
9913;DHT22;41380;52.548;13.344;2022-07-01T13:49:28;20.50;99.90
9913;DHT22;41380;52.548;13.344;2022-07-01T13:51:58;20.60;99.90
9913;DHT22;41380;52.548;13.344;2022-07-01T13:54:25;20.60;99.90
9913;DHT22;41380;52.548;13.344;2022-07-01T13:56:52;20.60;99.90
9913;DHT22;41380;52.548;13.344;2022-07-01T13:59:19;20.50;99.90
9913;DHT22;41380;52.548;13.344;2022-07-01T14:01:49;20.50;99.90
9913;DHT22;41380;52.548;13.344;2022-07-01T14:04:16;20.50;99.90
9913;DHT22;41380;52.548;13.344;2022-07-01T14:06:44;20.50;99.90
9913;DHT22;41380;52.548;13.344;2022-07-01T14:09:11;20.50;99.70
9913;DHT22;41380;52.548;13.344;2022-07-01T14:11:38;20.50;99.20
9913;DHT22;41380;52.548;13.344;2022-07-01T14:14:06;20.40;99.40
9913;DHT22;41380;52.548;13.344;2022-07-01T14:16:33;20.20;99.60
9913;DHT22;41380;52.548;13.344;2022-07-01T14:19:00;20.00;99.80
9913;DHT22;41380;52.548;13.344;2022-07-01T14:21:27;19.90;99.90
9913;DHT22;41380;52.548;13.344;2022-07-01T14:23:56;19.80;99.90
9913;DHT22;41380;52.548;13.344;2022-07-01T14:26:23;19.70;99.90
9913;DHT22;41380;52.548;13.344;2022-07-01T14:28:50;19.60;99.90
9913;DHT22;41380;52.548;13.344;2022-07-01T14:31:17;19.50;99.90
9913;DHT22;41380;52.548;13.344;2022-07-01T14:33:44;19.50;99.90
9913;DHT22;41380;52.548;13.344;2022-07-01T14:36:11;19.50;99.90
9913;DHT22;41380;52.548;13.344;2022-07-01T14:38:38;19.60;99.90
9913;DHT22;41380;52.548;13.344;2022-07-01T14:41:07;19.60;99.90
9913;DHT22;41380;52.548;13.344;2022-07-01T14:43:34;19.70;99.90
9913;DHT22;41380;52.548;13.344;2022-07-01T14:46:00;19.80;99.90
9913;DHT22;41380;52.548;13.344;2022-07-01T14:48:29;19.80;99.90
9913;DHT22;41380;52.548;13.344;2022-07-01T14:50:56;19.80;99.90
9913;DHT22;41380;52.548;13.344;2022-07-01T14:53:23;19.70;99.90
9913;DHT22;41380;52.548;13.344;2022-07-01T14:55:51;19.50;99.90
9913;DHT22;41380;52.548;13.344;2022-07-01T14:58:19;19.20;99.90
9913;DHT22;41380;52.548;13.344;2022-07-01T15:00:46;19.10;99.90
9913;DHT22;41380;52.548;13.344;2022-07-01T15:03:13;18.90;99.90
9913;DHT22;41380;52.548;13.344;2022-07-01T15:05:41;18.80;99.90
9913;DHT22;41380;52.548;13.344;2022-07-01T15:08:08;18.70;99.90
9913;DHT22;41380;52.548;13.344;2022-07-01T15:10:35;18.70;99.90
9913;DHT22;41380;52.548;13.344;2022-07-01T15:13:02;18.70;99.90
9913;DHT22;41380;52.548;13.344;2022-07-01T15:15:30;18.70;99.90
9913;DHT22;41380;52.548;13.344;2022-07-01T15:17:59;18.60;99.90
9913;DHT22;41380;52.548;13.344;2022-07-01T15:20:26;18.50;99.90
9913;DHT22;41380;52.548;13.344;2022-07-01T15:22:53;18.50;99.90
9913;DHT22;41380;52.548;13.344;2022-07-01T15:25:20;18.40;99.90
9913;DHT22;41380;52.548;13.344;2022-07-01T15:27:47;18.40;99.90
9913;DHT22;41380;52.548;13.344;2022-07-01T15:30:14;18.40;99.90
9913;DHT22;41380;52.548;13.344;2022-07-01T15:32:45;18.30;99.90
9913;DHT22;41380;52.548;13.344;2022-07-01T15:35:12;18.20;99.90
9913;DHT22;41380;52.548;13.344;2022-07-01T15:37:39;18.20;99.90
9913;DHT22;41380;52.548;13.344;2022-07-01T15:40:07;18.10;99.90